sensor_id;sensor_type;location;lat;lon;timestamp;pressure;altitude;pressure_sealevel;temperature;humidity
59767;BME280;46248;58.364;25.582;2023-05-03T00:01:18;100985.81;;;1.69;95.78
59767;BME280;46248;58.364;25.582;2023-05-03T00:04:41;100991.88;;;1.68;95.84
59767;BME280;46248;58.364;25.582;2023-05-03T00:08:09;100951.59;;;1.46;96.37
59767;BME280;46248;58.364;25.582;2023-05-03T00:11:33;100992.75;;;1.64;96.69
59767;BME280;46248;58.364;25.582;2023-05-03T00:14:57;100996.19;;;1.63;96.46
59767;BME280;46248;58.364;25.582;2023-05-03T00:18:20;100991.94;;;1.59;97.20
59767;BME280;46248;58.364;25.582;2023-05-03T00:21:42;101000.53;;;1.59;97.35
59767;BME280;46248;58.364;25.582;2023-05-03T00:25:08;100995.38;;;1.58;97.47
59767;BME280;46248;58.364;25.582;2023-05-03T00:28:31;100997.13;;;1.57;97.23
59767;BME280;46248;58.364;25.582;2023-05-03T00:32:20;100993.66;;;1.57;97.44
59767;BME280;46248;58.364;25.582;2023-05-03T00:35:44;100996.25;;;1.54;97.13
59767;BME280;46248;58.364;25.582;2023-05-03T00:39:07;100989.41;;;1.48;97.10
59767;BME280;46248;58.364;25.582;2023-05-03T00:42:34;101000.59;;;1.52;96.63
59767;BME280;46248;58.364;25.582;2023-05-03T00:45:58;101004.91;;;1.51;98.00
59767;BME280;46248;58.364;25.582;2023-05-03T00:49:36;100992.88;;;1.46;97.06
59767;BME280;46248;58.364;25.582;2023-05-03T00:53:00;101002.34;;;1.47;97.13
59767;BME280;46248;58.364;25.582;2023-05-03T00:56:23;100990.38;;;1.36;97.97
59767;BME280;46248;58.364;25.582;2023-05-03T00:59:52;101012.66;;;1.44;98.63
59767;BME280;46248;58.364;25.582;2023-05-03T01:03:15;101015.25;;;1.42;98.25
59767;BME280;46248;58.364;25.582;2023-05-03T01:06:44;101017.00;;;1.40;97.80
59767;BME280;46248;58.364;25.582;2023-05-03T01:10:17;101022.16;;;1.38;97.89
59767;BME280;46248;58.364;25.582;2023-05-03T01:13:47;101027.31;;;1.38;97.92
59767;BME280;46248;58.364;25.582;2023-05-03T01:17:14;101020.47;;;1.31;97.94
59767;BME280;46248;58.364;25.582;2023-05-03T01:20:37;101032.50;;;1.32;98.31
59767;BME280;46248;58.364;25.582;2023-05-03T01:24:12;101032.53;;;1.31;97.91
59767;BME280;46248;58.364;25.582;2023-05-03T01:27:41;101038.53;;;1.33;98.18
59767;BME280;46248;58.364;25.582;2023-05-03T01:31:04;101043.69;;;1.33;97.95
59767;BME280;46248;58.364;25.582;2023-05-03T01:34:32;101035.09;;;1.32;97.84
59767;BME280;46248;58.364;25.582;2023-05-03T01:37:56;101047.16;;;1.33;97.63
59767;BME280;46248;58.364;25.582;2023-05-03T01:41:20;101046.28;;;1.34;97.60
59767;BME280;46248;58.364;25.582;2023-05-03T01:44:46;101052.28;;;1.36;97.35
59767;BME280;46248;58.364;25.582;2023-05-03T01:48:10;101054.88;;;1.36;97.75
59767;BME280;46248;58.364;25.582;2023-05-03T01:51:33;101061.72;;;1.36;97.41
59767;BME280;46248;58.364;25.582;2023-05-03T01:54:56;101053.16;;;1.34;97.47
59767;BME280;46248;58.364;25.582;2023-05-03T01:58:19;101043.72;;;1.28;97.48
59767;BME280;46248;58.364;25.582;2023-05-03T02:01:44;101048.84;;;1.30;97.22
59767;BME280;46248;58.364;25.582;2023-05-03T02:05:07;101057.47;;;1.32;97.32
59767;BME280;46248;58.364;25.582;2023-05-03T02:08:34;101047.19;;;1.24;97.14
59767;BME280;46248;58.364;25.582;2023-05-03T02:11:57;101048.03;;;1.23;97.24
59767;BME280;46248;58.364;25.582;2023-05-03T02:15:20;101054.06;;;1.25;97.11
59767;BME280;46248;58.364;25.582;2023-05-03T02:18:43;101060.94;;;1.22;97.26
59767;BME280;46248;58.364;25.582;2023-05-03T02:22:07;101058.38;;;1.20;97.25
59767;BME280;46248;58.364;25.582;2023-05-03T02:25:29;101071.28;;;1.17;97.36
59767;BME280;46248;58.364;25.582;2023-05-03T02:28:53;101073.88;;;1.11;97.69
59767;BME280;46248;58.364;25.582;2023-05-03T02:32:16;101084.19;;;1.14;97.37
59767;BME280;46248;58.364;25.582;2023-05-03T02:35:42;101086.78;;;1.12;97.18
59767;BME280;46248;58.364;25.582;2023-05-03T02:39:06;101098.81;;;1.09;97.86
59767;BME280;46248;58.364;25.582;2023-05-03T02:42:29;101097.09;;;1.08;97.42
59767;BME280;46248;58.364;25.582;2023-05-03T02:45:52;101107.41;;;1.08;97.62
59767;BME280;46248;58.364;25.582;2023-05-03T02:49:15;101105.69;;;1.05;97.44
59767;BME280;46248;58.364;25.582;2023-05-03T02:52:39;101106.53;;;1.09;97.46
59767;BME280;46248;58.364;25.582;2023-05-03T02:56:04;101109.13;;;1.10;98.17
59767;BME280;46248;58.364;25.582;2023-05-03T02:59:27;101118.59;;;1.13;98.02
59767;BME280;46248;58.364;25.582;2023-05-03T03:02:51;101105.69;;;1.08;97.91
59767;BME280;46248;58.364;25.582;2023-05-03T03:06:14;101115.13;;;1.17;98.50
59767;BME280;46248;58.364;25.582;2023-05-03T03:09:38;101122.00;;;1.23;98.58
59767;BME280;46248;58.364;25.582;2023-05-03T03:13:02;101107.38;;;1.17;98.63
59767;BME280;46248;58.364;25.582;2023-05-03T03:16:25;101121.94;;;1.36;98.97
59767;BME280;46248;58.364;25.582;2023-05-03T03:19:47;101130.47;;;1.48;99.23
59767;BME280;46248;58.364;25.582;2023-05-03T03:23:10;101127.88;;;1.62;98.82
59767;BME280;46248;58.364;25.582;2023-05-03T03:26:34;101138.94;;;1.82;98.53
59767;BME280;46248;58.364;25.582;2023-05-03T03:29:57;101138.84;;;2.00;97.72
59767;BME280;46248;58.364;25.582;2023-05-03T03:33:21;101133.56;;;2.16;96.97
59767;BME280;46248;58.364;25.582;2023-05-03T03:36:46;101142.03;;;2.38;96.08
59767;BME280;46248;58.364;25.582;2023-05-03T03:40:13;101145.31;;;2.57;95.30
59767;BME280;46248;58.364;25.582;2023-05-03T03:43:37;101155.53;;;2.73;94.30
59767;BME280;46248;58.364;25.582;2023-05-03T03:47:00;101147.72;;;2.80;93.53
59767;BME280;46248;58.364;25.582;2023-05-03T03:50:23;101151.88;;;2.93;93.02
59767;BME280;46248;58.364;25.582;2023-05-03T03:53:46;101160.34;;;3.12;91.77
59767;BME280;46248;58.364;25.582;2023-05-03T03:57:09;101159.38;;;3.22;91.44
59767;BME280;46248;58.364;25.582;2023-05-03T04:00:33;101166.16;;;3.32;91.68
59767;BME280;46248;58.364;25.582;2023-05-03T04:03:56;101165.09;;;3.52;90.21
59767;BME280;46248;58.364;25.582;2023-05-03T04:07:19;101172.63;;;3.68;89.39
59767;BME280;46248;58.364;25.582;2023-05-03T04:10:42;101157.84;;;3.77;88.15
59767;BME280;46248;58.364;25.582;2023-05-03T04:14:06;101173.19;;;3.94;87.83
59767;BME280;46248;58.364;25.582;2023-05-03T04:17:31;101174.69;;;4.08;86.70
59767;BME280;46248;58.364;25.582;2023-05-03T04:20:54;101176.25;;;4.20;86.10
59767;BME280;46248;58.364;25.582;2023-05-03T04:24:17;101183.81;;;4.35;86.89
59767;BME280;46248;58.364;25.582;2023-05-03T04:27:40;101182.66;;;4.55;85.98
59767;BME280;46248;58.364;25.582;2023-05-03T04:31:03;101179.78;;;4.73;83.95
59767;BME280;46248;58.364;25.582;2023-05-03T04:34:28;101183.84;;;4.87;83.91
59767;BME280;46248;58.364;25.582;2023-05-03T04:37:52;101179.38;;;4.96;81.44
59767;BME280;46248;58.364;25.582;2023-05-03T04:41:14;101187.81;;;5.08;83.57
59767;BME280;46248;58.364;25.582;2023-05-03T04:44:37;101197.94;;;5.23;83.04
59767;BME280;46248;58.364;25.582;2023-05-03T04:48:00;101197.53;;;5.44;81.94
59767;BME280;46248;58.364;25.582;2023-05-03T04:51:27;101196.38;;;5.59;80.77
59767;BME280;46248;58.364;25.582;2023-05-03T04:54:50;101197.13;;;5.66;79.83
59767;BME280;46248;58.364;25.582;2023-05-03T04:58:13;101197.88;;;5.71;76.96
59767;BME280;46248;58.364;25.582;2023-05-03T05:01:35;101201.31;;;5.71;77.77
59767;BME280;46248;58.364;25.582;2023-05-03T05:04:58;101208.19;;;5.76;77.26
59767;BME280;46248;58.364;25.582;2023-05-03T05:08:22;101203.66;;;5.84;77.03
59767;BME280;46248;58.364;25.582;2023-05-03T05:11:45;101209.53;;;5.96;76.96
59767;BME280;46248;58.364;25.582;2023-05-03T05:15:09;101207.44;;;6.12;76.86
59767;BME280;46248;58.364;25.582;2023-05-03T05:19:07;101207.16;;;6.25;75.07
59767;BME280;46248;58.364;25.582;2023-05-03T05:22:46;101216.31;;;6.41;72.98
59767;BME280;46248;58.364;25.582;2023-05-03T05:26:13;101220.31;;;6.56;73.11
59767;BME280;46248;58.364;25.582;2023-05-03T05:29:36;101218.09;;;6.78;70.40
59767;BME280;46248;58.364;25.582;2023-05-03T05:32:59;101222.09;;;6.91;72.03
59767;BME280;46248;58.364;25.582;2023-05-03T05:36:22;101216.41;;;7.11;69.16
59767;BME280;46248;58.364;25.582;2023-05-03T05:39:45;101210.94;;;7.20;69.36
59767;BME280;46248;58.364;25.582;2023-05-03T05:43:09;101211.56;;;7.30;68.79
59767;BME280;46248;58.364;25.582;2023-05-03T05:46:36;101221.88;;;7.33;66.30
59767;BME280;46248;58.364;25.582;2023-05-03T05:49:58;101223.56;;;7.36;64.77
59767;BME280;46248;58.364;25.582;2023-05-03T05:53:21;101223.47;;;7.39;64.90
59767;BME280;46248;58.364;25.582;2023-05-03T05:56:44;101225.19;;;7.40;63.31
59767;BME280;46248;58.364;25.582;2023-05-03T06:00:10;101222.25;;;7.52;66.86
59767;BME280;46248;58.364;25.582;2023-05-03T06:03:35;101232.88;;;7.75;65.50
59767;BME280;46248;58.364;25.582;2023-05-03T06:06:58;101233.22;;;7.94;65.49
59767;BME280;46248;58.364;25.582;2023-05-03T06:10:20;101225.88;;;8.07;63.87
59767;BME280;46248;58.364;25.582;2023-05-03T06:13:43;101237.81;;;8.16;61.40
59767;BME280;46248;58.364;25.582;2023-05-03T06:17:07;101233.78;;;8.04;60.86
59767;BME280;46248;58.364;25.582;2023-05-03T06:20:30;101238.41;;;7.96;60.98
59767;BME280;46248;58.364;25.582;2023-05-03T06:23:54;101240.84;;;8.02;61.76
59767;BME280;46248;58.364;25.582;2023-05-03T06:27:17;101246.63;;;8.12;61.26
59767;BME280;46248;58.364;25.582;2023-05-03T06:30:40;101247.19;;;8.21;60.68
59767;BME280;46248;58.364;25.582;2023-05-03T06:34:04;101238.34;;;8.27;53.91
59767;BME280;46248;58.364;25.582;2023-05-03T06:37:29;101242.53;;;8.33;56.57
59767;BME280;46248;58.364;25.582;2023-05-03T06:40:52;101243.22;;;8.38;59.43
59767;BME280;46248;58.364;25.582;2023-05-03T06:44:15;101250.59;;;8.53;59.54
59767;BME280;46248;58.364;25.582;2023-05-03T06:47:38;101245.63;;;8.45;57.02
59767;BME280;46248;58.364;25.582;2023-05-03T06:51:04;101249.09;;;8.46;54.67
59767;BME280;46248;58.364;25.582;2023-05-03T06:54:27;101252.19;;;8.59;59.25
59767;BME280;46248;58.364;25.582;2023-05-03T06:57:50;101263.22;;;8.95;58.67
59767;BME280;46248;58.364;25.582;2023-05-03T07:01:14;101256.59;;;9.11;56.51
59767;BME280;46248;58.364;25.582;2023-05-03T07:04:37;101273.31;;;9.06;55.00
59767;BME280;46248;58.364;25.582;2023-05-03T07:08:01;101255.84;;;9.08;58.64
59767;BME280;46248;58.364;25.582;2023-05-03T07:11:24;101268.88;;;9.34;57.53
59767;BME280;46248;58.364;25.582;2023-05-03T07:14:47;101257.97;;;9.47;55.31
59767;BME280;46248;58.364;25.582;2023-05-03T07:18:10;101261.16;;;9.56;56.09
59767;BME280;46248;58.364;25.582;2023-05-03T07:21:33;101273.47;;;9.78;57.00
59767;BME280;46248;58.364;25.582;2023-05-03T07:24:58;101266.25;;;10.08;52.75
59767;BME280;46248;58.364;25.582;2023-05-03T07:28:24;101267.63;;;10.18;53.74
59767;BME280;46248;58.364;25.582;2023-05-03T07:31:48;101261.34;;;10.22;49.92
59767;BME280;46248;58.364;25.582;2023-05-03T07:35:14;101264.50;;;10.08;49.19
59767;BME280;46248;58.364;25.582;2023-05-03T07:38:37;101268.53;;;10.17;47.60
59767;BME280;46248;58.364;25.582;2023-05-03T07:42:05;101273.38;;;10.28;49.81
59767;BME280;46248;58.364;25.582;2023-05-03T07:45:28;101282.50;;;10.41;48.42
59767;BME280;46248;58.364;25.582;2023-05-03T07:48:51;101284.22;;;10.41;49.76
59767;BME280;46248;58.364;25.582;2023-05-03T07:52:14;101276.25;;;10.44;47.02
59767;BME280;46248;58.364;25.582;2023-05-03T07:55:37;101277.88;;;10.48;50.07
59767;BME280;46248;58.364;25.582;2023-05-03T07:59:00;101281.34;;;10.70;47.44
59767;BME280;46248;58.364;25.582;2023-05-03T08:02:30;101279.28;;;10.78;49.21
59767;BME280;46248;58.364;25.582;2023-05-03T08:05:54;101282.13;;;10.94;49.37
59767;BME280;46248;58.364;25.582;2023-05-03T08:09:17;101280.09;;;11.01;48.65
59767;BME280;46248;58.364;25.582;2023-05-03T08:23:08;101284.34;;;11.26;45.87
59767;BME280;46248;58.364;25.582;2023-05-03T08:26:31;101291.03;;;11.33;47.30
59767;BME280;46248;58.364;25.582;2023-05-03T08:29:53;101259.00;;;11.04;47.67
59767;BME280;46248;58.364;25.582;2023-05-03T08:33:15;101286.31;;;11.20;48.38
59767;BME280;46248;58.364;25.582;2023-05-03T08:36:37;101280.47;;;11.14;47.17
59767;BME280;46248;58.364;25.582;2023-05-03T08:40:01;101292.59;;;10.94;47.85
59767;BME280;46248;58.364;25.582;2023-05-03T08:43:26;101285.97;;;10.86;48.09
59767;BME280;46248;58.364;25.582;2023-05-03T08:46:49;101290.34;;;10.85;47.94
59767;BME280;46248;58.364;25.582;2023-05-03T08:50:12;101279.19;;;11.02;49.57
59767;BME280;46248;58.364;25.582;2023-05-03T08:53:34;101290.84;;;11.17;48.66
59767;BME280;46248;58.364;25.582;2023-05-03T08:56:57;101288.13;;;11.18;48.67
59767;BME280;46248;58.364;25.582;2023-05-03T09:16:22;101289.84;;;10.97;47.96
59767;BME280;46248;58.364;25.582;2023-05-03T09:19:51;101294.22;;;10.98;48.11
59767;BME280;46248;58.364;25.582;2023-05-03T09:23:13;101284.41;;;11.24;49.01
59767;BME280;46248;58.364;25.582;2023-05-03T09:26:34;101276.94;;;11.56;49.39
59767;BME280;46248;58.364;25.582;2023-05-03T09:30:16;101277.84;;;11.75;45.62
59767;BME280;46248;58.364;25.582;2023-05-03T09:33:40;101286.66;;;11.74;49.17
59767;BME280;46248;58.364;25.582;2023-05-03T09:37:02;101277.31;;;11.67;48.36
59767;BME280;46248;58.364;25.582;2023-05-03T09:40:24;101284.44;;;11.65;47.92
59767;BME280;46248;58.364;25.582;2023-05-03T09:43:50;101292.00;;;11.91;48.27
59767;BME280;46248;58.364;25.582;2023-05-03T09:47:14;101292.34;;;12.04;47.06
59767;BME280;46248;58.364;25.582;2023-05-03T09:50:39;101286.59;;;12.15;47.51
59767;BME280;46248;58.364;25.582;2023-05-03T09:54:02;101283.25;;;12.30;46.14
59767;BME280;46248;58.364;25.582;2023-05-03T09:57:25;101294.19;;;12.40;46.53
59767;BME280;46248;58.364;25.582;2023-05-03T10:00:47;101280.31;;;12.55;47.64
59767;BME280;46248;58.364;25.582;2023-05-03T10:04:14;101286.22;;;12.60;45.02
59767;BME280;46248;58.364;25.582;2023-05-03T10:07:39;101271.66;;;12.72;43.21
59767;BME280;46248;58.364;25.582;2023-05-03T10:11:03;101278.91;;;12.67;44.90
59767;BME280;46248;58.364;25.582;2023-05-03T10:14:25;101292.72;;;12.71;45.74
59767;BME280;46248;58.364;25.582;2023-05-03T10:17:48;101303.06;;;12.56;46.10
59767;BME280;46248;58.364;25.582;2023-05-03T10:21:17;101337.84;;;11.83;49.34
59767;BME280;46248;58.364;25.582;2023-05-03T10:28:37;101378.56;;;8.52;64.48
59767;BME280;46248;58.364;25.582;2023-05-03T10:32:00;101403.06;;;7.80;67.65
59767;BME280;46248;58.364;25.582;2023-05-03T10:35:25;101356.44;;;6.98;69.09
59767;BME280;46248;58.364;25.582;2023-05-03T10:38:51;101387.84;;;6.91;70.87
59767;BME280;46248;58.364;25.582;2023-05-03T10:42:13;101386.47;;;6.74;74.68
59767;BME280;46248;58.364;25.582;2023-05-03T10:53:36;101418.00;;;6.15;77.72
59767;BME280;46248;58.364;25.582;2023-05-03T10:56:58;101413.97;;;5.99;77.46
59767;BME280;46248;58.364;25.582;2023-05-03T11:00:25;101398.38;;;5.99;77.90
59767;BME280;46248;58.364;25.582;2023-05-03T11:03:51;101379.22;;;6.03;78.89
59767;BME280;46248;58.364;25.582;2023-05-03T11:07:20;101377.13;;;6.22;78.71
59767;BME280;46248;58.364;25.582;2023-05-03T11:10:42;101378.56;;;6.37;78.74
59767;BME280;46248;58.364;25.582;2023-05-03T11:14:05;101384.19;;;6.59;77.84
59767;BME280;46248;58.364;25.582;2023-05-03T11:17:28;101394.19;;;6.77;81.66
59767;BME280;46248;58.364;25.582;2023-05-03T11:20:50;101383.56;;;6.88;76.62
59767;BME280;46248;58.364;25.582;2023-05-03T11:24:14;101367.06;;;6.89;77.26
59767;BME280;46248;58.364;25.582;2023-05-03T11:27:36;101396.38;;;6.97;77.56
59767;BME280;46248;58.364;25.582;2023-05-03T11:30:58;101417.38;;;6.89;77.17
59767;BME280;46248;58.364;25.582;2023-05-03T11:34:21;101410.44;;;6.48;76.44
59767;BME280;46248;58.364;25.582;2023-05-03T11:37:43;101436.38;;;6.05;79.21
59767;BME280;46248;58.364;25.582;2023-05-03T11:41:11;101431.94;;;5.59;83.31
59767;BME280;46248;58.364;25.582;2023-05-03T11:44:34;101463.28;;;5.48;85.05
59767;BME280;46248;58.364;25.582;2023-05-03T11:47:57;101457.44;;;5.34;86.37
59767;BME280;46248;58.364;25.582;2023-05-03T11:51:20;101447.22;;;5.21;85.81
59767;BME280;46248;58.364;25.582;2023-05-03T11:54:42;101448.16;;;5.14;87.05
59767;BME280;46248;58.364;25.582;2023-05-03T11:58:11;101444.63;;;5.21;88.09
59767;BME280;46248;58.364;25.582;2023-05-03T12:01:33;101433.03;;;5.44;89.14
59767;BME280;46248;58.364;25.582;2023-05-03T12:04:55;101447.25;;;5.76;87.81
59767;BME280;46248;58.364;25.582;2023-05-03T12:08:18;101456.31;;;6.04;88.76
59767;BME280;46248;58.364;25.582;2023-05-03T12:11:42;101444.75;;;6.22;83.26
59767;BME280;46248;58.364;25.582;2023-05-03T12:15:09;101447.06;;;6.37;82.85
59767;BME280;46248;58.364;25.582;2023-05-03T12:18:46;101454.56;;;6.54;79.52
59767;BME280;46248;58.364;25.582;2023-05-03T12:22:18;101438.94;;;6.53;75.49
59767;BME280;46248;58.364;25.582;2023-05-03T12:25:45;101458.78;;;6.60;75.88
59767;BME280;46248;58.364;25.582;2023-05-03T12:29:08;101457.09;;;6.57;79.49
59767;BME280;46248;58.364;25.582;2023-05-03T12:32:32;101458.06;;;6.50;76.34
59767;BME280;46248;58.364;25.582;2023-05-03T12:35:58;101458.13;;;6.47;77.81
59767;BME280;46248;58.364;25.582;2023-05-03T12:39:23;101447.66;;;6.52;77.92
59767;BME280;46248;58.364;25.582;2023-05-03T12:42:48;101450.03;;;6.62;76.33
59767;BME280;46248;58.364;25.582;2023-05-03T12:46:10;101443.84;;;6.70;77.14
59767;BME280;46248;58.364;25.582;2023-05-03T12:49:53;101453.81;;;6.89;76.97
59767;BME280;46248;58.364;25.582;2023-05-03T12:53:19;101438.69;;;7.07;75.15
59767;BME280;46248;58.364;25.582;2023-05-03T12:56:45;101402.84;;;7.18;69.62
59767;BME280;46248;58.364;25.582;2023-05-03T13:00:08;101407.72;;;7.32;68.22
59767;BME280;46248;58.364;25.582;2023-05-03T13:03:35;101407.50;;;7.41;69.12
59767;BME280;46248;58.364;25.582;2023-05-03T13:07:05;101410.03;;;7.44;71.63
59767;BME280;46248;58.364;25.582;2023-05-03T13:10:33;101414.16;;;7.54;70.19
59767;BME280;46248;58.364;25.582;2023-05-03T13:13:55;101408.75;;;7.62;67.92
59767;BME280;46248;58.364;25.582;2023-05-03T13:17:18;101405.19;;;7.66;64.46
59767;BME280;46248;58.364;25.582;2023-05-03T13:20:42;101402.44;;;7.72;65.89
59767;BME280;46248;58.364;25.582;2023-05-03T13:24:06;101413.28;;;7.90;68.19
59767;BME280;46248;58.364;25.582;2023-05-03T13:27:29;101416.94;;;8.15;64.90
59767;BME280;46248;58.364;25.582;2023-05-03T13:30:51;101405.97;;;8.35;67.05
59767;BME280;46248;58.364;25.582;2023-05-03T13:34:13;101412.13;;;8.65;69.70
59767;BME280;46248;58.364;25.582;2023-05-03T13:37:35;101386.75;;;8.99;69.67
59767;BME280;46248;58.364;25.582;2023-05-03T13:40:59;101408.31;;;9.33;65.94
59767;BME280;46248;58.364;25.582;2023-05-03T13:44:22;101399.84;;;9.52;65.91
59767;BME280;46248;58.364;25.582;2023-05-03T13:47:45;101397.00;;;9.59;63.38
59767;BME280;46248;58.364;25.582;2023-05-03T13:51:26;101426.28;;;9.44;64.63
59767;BME280;46248;58.364;25.582;2023-05-03T13:54:49;101462.56;;;8.66;66.53
59767;BME280;46248;58.364;25.582;2023-05-03T13:58:13;101467.84;;;7.97;68.90
59767;BME280;46248;58.364;25.582;2023-05-03T14:01:35;101469.59;;;7.61;72.32
59767;BME280;46248;58.364;25.582;2023-05-03T14:04:58;101473.19;;;7.17;77.90
59767;BME280;46248;58.364;25.582;2023-05-03T14:08:20;101481.25;;;6.62;81.33
59767;BME280;46248;58.364;25.582;2023-05-03T14:11:42;101489.78;;;6.24;81.65
59767;BME280;46248;58.364;25.582;2023-05-03T14:15:06;101487.53;;;6.06;82.05
59767;BME280;46248;58.364;25.582;2023-05-03T14:18:28;101483.34;;;5.92;84.27
59767;BME280;46248;58.364;25.582;2023-05-03T14:21:50;101474.06;;;5.79;85.42
59767;BME280;46248;58.364;25.582;2023-05-03T14:25:11;101468.75;;;5.85;84.19
59767;BME280;46248;58.364;25.582;2023-05-03T14:28:33;101435.81;;;5.87;84.46
59767;BME280;46248;58.364;25.582;2023-05-03T14:31:57;101432.94;;;6.04;86.77
59767;BME280;46248;58.364;25.582;2023-05-03T14:35:19;101421.34;;;6.22;89.55
59767;BME280;46248;58.364;25.582;2023-05-03T14:38:42;101417.28;;;6.54;88.91
59767;BME280;46248;58.364;25.582;2023-05-03T14:42:04;101418.50;;;6.78;86.17
59767;BME280;46248;58.364;25.582;2023-05-03T14:45:26;101429.59;;;6.87;84.69
59767;BME280;46248;58.364;25.582;2023-05-03T14:48:49;101419.94;;;6.91;82.58
59767;BME280;46248;58.364;25.582;2023-05-03T14:52:12;101430.31;;;6.94;84.71
59767;BME280;46248;58.364;25.582;2023-05-03T14:55:33;101437.13;;;7.00;85.85
59767;BME280;46248;58.364;25.582;2023-05-03T14:58:56;101437.84;;;7.06;84.38
59767;BME280;46248;58.364;25.582;2023-05-03T15:02:18;101430.59;;;7.19;82.93
59767;BME280;46248;58.364;25.582;2023-05-03T15:05:44;101425.81;;;7.38;83.55
59767;BME280;46248;58.364;25.582;2023-05-03T15:09:07;101429.97;;;7.47;80.67
59767;BME280;46248;58.364;25.582;2023-05-03T15:12:31;101427.25;;;7.51;81.41
59767;BME280;46248;58.364;25.582;2023-05-03T15:15:54;101423.81;;;7.51;81.76
59767;BME280;46248;58.364;25.582;2023-05-03T15:19:16;101420.28;;;7.52;84.33
59767;BME280;46248;58.364;25.582;2023-05-03T15:22:39;101422.88;;;7.53;84.09
59767;BME280;46248;58.364;25.582;2023-05-03T15:26:01;101418.41;;;7.58;83.98
59767;BME280;46248;58.364;25.582;2023-05-03T15:29:24;101419.84;;;7.70;84.07
59767;BME280;46248;58.364;25.582;2023-05-03T15:32:46;101421.28;;;7.82;80.39
59767;BME280;46248;58.364;25.582;2023-05-03T15:36:09;101431.31;;;7.97;78.50
59767;BME280;46248;58.364;25.582;2023-05-03T15:39:32;101433.66;;;8.08;79.34
59767;BME280;46248;58.364;25.582;2023-05-03T15:42:54;101424.63;;;8.20;78.15
59767;BME280;46248;58.364;25.582;2023-05-03T15:46:16;101425.25;;;8.30;79.06
59767;BME280;46248;58.364;25.582;2023-05-03T15:49:38;101426.94;;;8.32;78.61
59767;BME280;46248;58.364;25.582;2023-05-03T15:53:00;101432.16;;;8.32;75.79
59767;BME280;46248;58.364;25.582;2023-05-03T15:56:24;101428.59;;;8.35;78.13
59767;BME280;46248;58.364;25.582;2023-05-03T15:59:47;101435.47;;;8.39;78.39
59767;BME280;46248;58.364;25.582;2023-05-03T16:03:09;101439.72;;;8.43;77.80
59767;BME280;46248;58.364;25.582;2023-05-03T16:06:31;101437.28;;;8.98;77.46
59767;BME280;46248;58.364;25.582;2023-05-03T16:09:53;101437.31;;;9.79;79.16
59767;BME280;46248;58.364;25.582;2023-05-03T16:13:16;101433.28;;;10.47;74.60
59767;BME280;46248;58.364;25.582;2023-05-03T16:16:39;101430.47;;;10.98;79.49
59767;BME280;46248;58.364;25.582;2023-05-03T16:20:02;101432.88;;;11.27;71.95
59767;BME280;46248;58.364;25.582;2023-05-03T16:23:25;101403.91;;;11.08;74.37
59767;BME280;46248;58.364;25.582;2023-05-03T16:26:47;101426.00;;;11.00;64.53
59767;BME280;46248;58.364;25.582;2023-05-03T16:30:11;101426.94;;;10.99;72.58
59767;BME280;46248;58.364;25.582;2023-05-03T16:33:34;101430.00;;;11.11;74.29
59767;BME280;46248;58.364;25.582;2023-05-03T16:36:56;101427.06;;;11.18;57.74
59767;BME280;46248;58.364;25.582;2023-05-03T16:40:18;101430.00;;;11.11;75.67
59767;BME280;46248;58.364;25.582;2023-05-03T16:43:40;101426.81;;;11.03;74.85
59767;BME280;46248;58.364;25.582;2023-05-03T16:47:03;101435.72;;;10.98;73.97
59767;BME280;46248;58.364;25.582;2023-05-03T16:50:26;101439.22;;;10.97;77.04
59767;BME280;46248;58.364;25.582;2023-05-03T16:53:48;101439.06;;;11.02;71.15
59767;BME280;46248;58.364;25.582;2023-05-03T16:57:11;101439.78;;;11.06;74.62
59767;BME280;46248;58.364;25.582;2023-05-03T17:00:33;101440.16;;;10.96;70.50
59767;BME280;46248;58.364;25.582;2023-05-03T17:03:57;101439.56;;;10.65;60.61
59767;BME280;46248;58.364;25.582;2023-05-03T17:07:19;101441.88;;;10.50;65.08
59767;BME280;46248;58.364;25.582;2023-05-03T17:10:42;101443.22;;;10.61;66.99
59767;BME280;46248;58.364;25.582;2023-05-03T17:14:05;101445.91;;;10.83;66.10
59767;BME280;46248;58.364;25.582;2023-05-03T17:17:27;101438.09;;;11.05;65.78
59767;BME280;46248;58.364;25.582;2023-05-03T17:20:50;101442.56;;;11.24;65.27
59767;BME280;46248;58.364;25.582;2023-05-03T17:24:12;101442.13;;;11.35;65.15
59767;BME280;46248;58.364;25.582;2023-05-03T17:27:34;101436.31;;;11.49;64.55
59767;BME280;46248;58.364;25.582;2023-05-03T17:30:58;101440.03;;;11.43;63.54
59767;BME280;46248;58.364;25.582;2023-05-03T17:34:20;101436.84;;;11.13;61.21
59767;BME280;46248;58.364;25.582;2023-05-03T17:37:43;101444.19;;;10.82;62.96
59767;BME280;46248;58.364;25.582;2023-05-03T17:41:06;101444.03;;;10.63;63.24
59767;BME280;46248;58.364;25.582;2023-05-03T17:44:28;101446.00;;;10.32;63.30
59767;BME280;46248;58.364;25.582;2023-05-03T17:47:51;101447.03;;;10.02;62.82
59767;BME280;46248;58.364;25.582;2023-05-03T17:51:13;101453.44;;;9.65;63.23
59767;BME280;46248;58.364;25.582;2023-05-03T17:54:37;101456.34;;;9.29;63.17
59767;BME280;46248;58.364;25.582;2023-05-03T17:58:00;101452.38;;;8.88;63.86
59767;BME280;46248;58.364;25.582;2023-05-03T18:01:23;101461.81;;;8.62;64.63
59767;BME280;46248;58.364;25.582;2023-05-03T18:04:45;101459.03;;;8.36;64.39
59767;BME280;46248;58.364;25.582;2023-05-03T18:08:07;101461.41;;;8.11;65.74
59767;BME280;46248;58.364;25.582;2023-05-03T18:11:30;101431.09;;;7.72;65.70
59767;BME280;46248;58.364;25.582;2023-05-03T18:14:52;101453.06;;;7.62;66.16
59767;BME280;46248;58.364;25.582;2023-05-03T18:18:19;101470.66;;;7.54;67.35
59767;BME280;46248;58.364;25.582;2023-05-03T18:21:41;101469.34;;;7.34;67.92